sensor_id;sensor_type;location;lat;lon;timestamp;P1;durP1;ratioP1;P2;durP2;ratioP2
8177;SDS011;4130;48.740;9.132;2023-04-16T00:01:15;0.90;;;0.90;;
8177;SDS011;4130;48.740;9.132;2023-04-16T00:03:42;0.80;;;0.80;;
8177;SDS011;4130;48.740;9.132;2023-04-16T00:06:09;0.80;;;0.80;;
8177;SDS011;4130;48.740;9.132;2023-04-16T00:08:37;0.63;;;0.63;;
8177;SDS011;4130;48.740;9.132;2023-04-16T00:11:05;1.07;;;0.80;;
8177;SDS011;4130;48.740;9.132;2023-04-16T00:13:31;0.87;;;0.87;;
8177;SDS011;4130;48.740;9.132;2023-04-16T00:15:58;0.67;;;0.67;;
8177;SDS011;4130;48.740;9.132;2023-04-16T00:18:25;0.83;;;0.83;;
8177;SDS011;4130;48.740;9.132;2023-04-16T00:20:51;1.40;;;1.30;;
8177;SDS011;4130;48.740;9.132;2023-04-16T00:23:18;1.10;;;1.00;;
8177;SDS011;4130;48.740;9.132;2023-04-16T00:25:46;0.87;;;0.87;;
8177;SDS011;4130;48.740;9.132;2023-04-16T00:28:13;0.80;;;0.80;;
8177;SDS011;4130;48.740;9.132;2023-04-16T00:30:40;0.90;;;0.90;;
8177;SDS011;4130;48.740;9.132;2023-04-16T00:33:07;0.60;;;0.60;;
8177;SDS011;4130;48.740;9.132;2023-04-16T00:35:34;0.80;;;0.80;;
8177;SDS011;4130;48.740;9.132;2023-04-16T00:38:00;1.10;;;1.10;;
8177;SDS011;4130;48.740;9.132;2023-04-16T00:40:27;0.70;;;0.70;;
8177;SDS011;4130;48.740;9.132;2023-04-16T00:42:55;1.10;;;1.10;;
8177;SDS011;4130;48.740;9.132;2023-04-16T00:45:22;1.10;;;1.10;;
8177;SDS011;4130;48.740;9.132;2023-04-16T00:47:49;0.97;;;0.97;;
8177;SDS011;4130;48.740;9.132;2023-04-16T00:50:16;0.77;;;0.70;;
8177;SDS011;4130;48.740;9.132;2023-04-16T00:52:44;0.50;;;0.50;;
8177;SDS011;4130;48.740;9.132;2023-04-16T00:55:12;0.67;;;0.67;;
8177;SDS011;4130;48.740;9.132;2023-04-16T00:57:39;1.03;;;1.03;;
8177;SDS011;4130;48.740;9.132;2023-04-16T01:00:07;0.73;;;0.73;;
8177;SDS011;4130;48.740;9.132;2023-04-16T01:02:35;0.70;;;0.70;;
8177;SDS011;4130;48.740;9.132;2023-04-16T01:05:02;0.57;;;0.57;;
8177;SDS011;4130;48.740;9.132;2023-04-16T01:07:30;0.70;;;0.70;;
8177;SDS011;4130;48.740;9.132;2023-04-16T01:09:57;0.60;;;0.60;;
8177;SDS011;4130;48.740;9.132;2023-04-16T01:12:24;0.70;;;0.70;;
8177;SDS011;4130;48.740;9.132;2023-04-16T01:14:54;1.10;;;1.00;;
8177;SDS011;4130;48.740;9.132;2023-04-16T01:17:22;0.63;;;0.60;;
8177;SDS011;4130;48.740;9.132;2023-04-16T01:19:49;0.83;;;0.83;;
8177;SDS011;4130;48.740;9.132;2023-04-16T01:22:17;2.10;;;0.90;;
8177;SDS011;4130;48.740;9.132;2023-04-16T01:24:44;0.90;;;0.90;;
8177;SDS011;4130;48.740;9.132;2023-04-16T01:27:10;0.57;;;0.57;;
8177;SDS011;4130;48.740;9.132;2023-04-16T01:29:37;0.60;;;0.60;;
8177;SDS011;4130;48.740;9.132;2023-04-16T01:32:04;0.77;;;0.77;;
8177;SDS011;4130;48.740;9.132;2023-04-16T01:34:30;1.40;;;0.70;;
8177;SDS011;4130;48.740;9.132;2023-04-16T01:36:57;0.50;;;0.50;;
8177;SDS011;4130;48.740;9.132;2023-04-16T01:39:25;0.53;;;0.53;;
8177;SDS011;4130;48.740;9.132;2023-04-16T01:41:52;0.67;;;0.67;;
8177;SDS011;4130;48.740;9.132;2023-04-16T01:44:19;0.70;;;0.70;;
8177;SDS011;4130;48.740;9.132;2023-04-16T01:46:47;0.50;;;0.50;;
8177;SDS011;4130;48.740;9.132;2023-04-16T01:49:14;0.87;;;0.87;;
8177;SDS011;4130;48.740;9.132;2023-04-16T01:51:41;0.53;;;0.53;;
8177;SDS011;4130;48.740;9.132;2023-04-16T01:54:07;0.77;;;0.70;;
8177;SDS011;4130;48.740;9.132;2023-04-16T01:56:36;0.63;;;0.63;;
8177;SDS011;4130;48.740;9.132;2023-04-16T01:59:02;0.47;;;0.47;;
8177;SDS011;4130;48.740;9.132;2023-04-16T02:01:29;0.70;;;0.70;;
8177;SDS011;4130;48.740;9.132;2023-04-16T02:03:56;0.50;;;0.50;;
8177;SDS011;4130;48.740;9.132;2023-04-16T02:06:23;0.70;;;0.70;;
8177;SDS011;4130;48.740;9.132;2023-04-16T02:08:50;0.60;;;0.60;;
8177;SDS011;4130;48.740;9.132;2023-04-16T02:11:17;0.50;;;0.50;;
8177;SDS011;4130;48.740;9.132;2023-04-16T02:13:45;0.50;;;0.47;;
8177;SDS011;4130;48.740;9.132;2023-04-16T02:16:12;0.40;;;0.40;;
8177;SDS011;4130;48.740;9.132;2023-04-16T02:18:39;0.93;;;0.93;;
8177;SDS011;4130;48.740;9.132;2023-04-16T02:21:05;0.43;;;0.43;;
8177;SDS011;4130;48.740;9.132;2023-04-16T02:23:32;0.70;;;0.70;;
8177;SDS011;4130;48.740;9.132;2023-04-16T02:25:59;0.80;;;0.80;;
8177;SDS011;4130;48.740;9.132;2023-04-16T02:28:27;0.50;;;0.50;;
8177;SDS011;4130;48.740;9.132;2023-04-16T02:30:55;0.53;;;0.53;;
8177;SDS011;4130;48.740;9.132;2023-04-16T02:33:23;0.60;;;0.57;;
8177;SDS011;4130;48.740;9.132;2023-04-16T02:35:50;0.37;;;0.37;;
8177;SDS011;4130;48.740;9.132;2023-04-16T02:38:17;0.70;;;0.70;;
8177;SDS011;4130;48.740;9.132;2023-04-16T02:40:44;0.53;;;0.53;;
8177;SDS011;4130;48.740;9.132;2023-04-16T02:43:10;0.43;;;0.43;;
8177;SDS011;4130;48.740;9.132;2023-04-16T02:45:37;0.60;;;0.60;;
8177;SDS011;4130;48.740;9.132;2023-04-16T02:48:05;0.63;;;0.63;;
8177;SDS011;4130;48.740;9.132;2023-04-16T02:50:33;0.70;;;0.70;;
8177;SDS011;4130;48.740;9.132;2023-04-16T02:53:00;0.67;;;0.67;;
8177;SDS011;4130;48.740;9.132;2023-04-16T02:55:27;0.43;;;0.43;;
8177;SDS011;4130;48.740;9.132;2023-04-16T02:57:54;0.30;;;0.30;;
8177;SDS011;4130;48.740;9.132;2023-04-16T03:00:21;0.47;;;0.47;;
8177;SDS011;4130;48.740;9.132;2023-04-16T03:02:47;0.80;;;0.80;;
8177;SDS011;4130;48.740;9.132;2023-04-16T03:05:16;0.40;;;0.40;;
8177;SDS011;4130;48.740;9.132;2023-04-16T03:07:42;0.83;;;0.83;;
8177;SDS011;4130;48.740;9.132;2023-04-16T03:10:10;0.30;;;0.30;;
8177;SDS011;4130;48.740;9.132;2023-04-16T03:12:37;0.50;;;0.50;;
8177;SDS011;4130;48.740;9.132;2023-04-16T03:15:05;0.53;;;0.53;;
8177;SDS011;4130;48.740;9.132;2023-04-16T03:17:32;0.80;;;0.80;;
8177;SDS011;4130;48.740;9.132;2023-04-16T03:19:59;0.60;;;0.60;;
8177;SDS011;4130;48.740;9.132;2023-04-16T03:22:27;0.33;;;0.33;;
8177;SDS011;4130;48.740;9.132;2023-04-16T03:24:53;0.73;;;0.73;;
8177;SDS011;4130;48.740;9.132;2023-04-16T03:27:20;0.50;;;0.50;;
8177;SDS011;4130;48.740;9.132;2023-04-16T03:29:47;0.60;;;0.60;;
8177;SDS011;4130;48.740;9.132;2023-04-16T03:32:14;0.90;;;0.90;;
8177;SDS011;4130;48.740;9.132;2023-04-16T03:34:41;0.67;;;0.67;;
8177;SDS011;4130;48.740;9.132;2023-04-16T03:37:08;0.60;;;0.60;;
8177;SDS011;4130;48.740;9.132;2023-04-16T03:39:37;0.90;;;0.90;;
8177;SDS011;4130;48.740;9.132;2023-04-16T03:42:04;0.60;;;0.60;;
8177;SDS011;4130;48.740;9.132;2023-04-16T03:44:30;0.87;;;0.87;;
8177;SDS011;4130;48.740;9.132;2023-04-16T03:46:57;0.73;;;0.73;;
8177;SDS011;4130;48.740;9.132;2023-04-16T03:49:24;0.67;;;0.67;;
8177;SDS011;4130;48.740;9.132;2023-04-16T03:51:51;0.67;;;0.67;;
8177;SDS011;4130;48.740;9.132;2023-04-16T03:54:17;0.60;;;0.60;;
8177;SDS011;4130;48.740;9.132;2023-04-16T03:56:46;0.43;;;0.43;;
8177;SDS011;4130;48.740;9.132;2023-04-16T03:59:13;0.70;;;0.70;;
8177;SDS011;4130;48.740;9.132;2023-04-16T04:01:40;0.83;;;0.83;;
8177;SDS011;4130;48.740;9.132;2023-04-16T04:04:06;0.70;;;0.70;;
8177;SDS011;4130;48.740;9.132;2023-04-16T04:06:33;0.70;;;0.70;;
8177;SDS011;4130;48.740;9.132;2023-04-16T04:09:00;0.80;;;0.77;;
8177;SDS011;4130;48.740;9.132;2023-04-16T04:11:27;0.80;;;0.80;;
8177;SDS011;4130;48.740;9.132;2023-04-16T04:13:55;0.70;;;0.70;;
8177;SDS011;4130;48.740;9.132;2023-04-16T04:16:22;0.50;;;0.50;;
8177;SDS011;4130;48.740;9.132;2023-04-16T04:18:48;0.60;;;0.60;;
8177;SDS011;4130;48.740;9.132;2023-04-16T04:21:15;0.60;;;0.60;;
8177;SDS011;4130;48.740;9.132;2023-04-16T04:23:42;0.53;;;0.53;;
8177;SDS011;4130;48.740;9.132;2023-04-16T04:26:09;0.60;;;0.60;;
8177;SDS011;4130;48.740;9.132;2023-04-16T04:28:35;0.77;;;0.77;;
8177;SDS011;4130;48.740;9.132;2023-04-16T04:31:03;0.87;;;0.83;;
8177;SDS011;4130;48.740;9.132;2023-04-16T04:33:30;0.47;;;0.47;;
8177;SDS011;4130;48.740;9.132;2023-04-16T04:35:57;1.03;;;0.97;;
8177;SDS011;4130;48.740;9.132;2023-04-16T04:38:24;1.37;;;0.67;;
8177;SDS011;4130;48.740;9.132;2023-04-16T04:40:50;0.73;;;0.70;;
8177;SDS011;4130;48.740;9.132;2023-04-16T04:43:17;1.00;;;0.97;;
8177;SDS011;4130;48.740;9.132;2023-04-16T04:45:44;0.60;;;0.60;;
8177;SDS011;4130;48.740;9.132;2023-04-16T04:48:14;0.67;;;0.67;;
8177;SDS011;4130;48.740;9.132;2023-04-16T04:50:41;0.60;;;0.60;;
8177;SDS011;4130;48.740;9.132;2023-04-16T04:53:10;0.70;;;0.70;;
8177;SDS011;4130;48.740;9.132;2023-04-16T04:55:38;0.70;;;0.70;;
8177;SDS011;4130;48.740;9.132;2023-04-16T04:58:05;0.63;;;0.63;;
8177;SDS011;4130;48.740;9.132;2023-04-16T05:00:33;0.80;;;0.80;;
8177;SDS011;4130;48.740;9.132;2023-04-16T05:03:01;0.80;;;0.80;;
8177;SDS011;4130;48.740;9.132;2023-04-16T05:05:30;0.73;;;0.73;;
8177;SDS011;4130;48.740;9.132;2023-04-16T05:07:56;0.50;;;0.50;;
8177;SDS011;4130;48.740;9.132;2023-04-16T05:10:23;0.60;;;0.60;;
8177;SDS011;4130;48.740;9.132;2023-04-16T05:12:50;0.60;;;0.60;;
8177;SDS011;4130;48.740;9.132;2023-04-16T05:15:16;1.10;;;1.00;;
8177;SDS011;4130;48.740;9.132;2023-04-16T05:17:43;0.70;;;0.70;;
8177;SDS011;4130;48.740;9.132;2023-04-16T05:20:10;0.67;;;0.67;;
8177;SDS011;4130;48.740;9.132;2023-04-16T05:22:38;0.87;;;0.87;;
8177;SDS011;4130;48.740;9.132;2023-04-16T05:25:05;0.40;;;0.40;;
8177;SDS011;4130;48.740;9.132;2023-04-16T05:27:32;1.00;;;1.00;;
8177;SDS011;4130;48.740;9.132;2023-04-16T05:29:59;0.50;;;0.50;;
8177;SDS011;4130;48.740;9.132;2023-04-16T05:32:26;0.70;;;0.67;;
8177;SDS011;4130;48.740;9.132;2023-04-16T05:34:53;0.80;;;0.80;;
8177;SDS011;4130;48.740;9.132;2023-04-16T05:37:19;1.23;;;1.13;;
8177;SDS011;4130;48.740;9.132;2023-04-16T05:39:47;1.37;;;1.23;;
8177;SDS011;4130;48.740;9.132;2023-04-16T05:42:14;1.13;;;0.90;;
8177;SDS011;4130;48.740;9.132;2023-04-16T05:44:41;1.10;;;1.10;;
8177;SDS011;4130;48.740;9.132;2023-04-16T05:47:07;1.30;;;1.20;;
8177;SDS011;4130;48.740;9.132;2023-04-16T05:49:34;1.33;;;1.23;;
8177;SDS011;4130;48.740;9.132;2023-04-16T05:52:02;1.27;;;1.23;;
8177;SDS011;4130;48.740;9.132;2023-04-16T05:54:28;1.70;;;1.33;;
8177;SDS011;4130;48.740;9.132;2023-04-16T05:56:56;1.00;;;1.00;;
8177;SDS011;4130;48.740;9.132;2023-04-16T05:59:25;1.13;;;1.13;;
8177;SDS011;4130;48.740;9.132;2023-04-16T06:01:51;1.53;;;1.43;;
8177;SDS011;4130;48.740;9.132;2023-04-16T06:04:18;1.57;;;1.47;;
8177;SDS011;4130;48.740;9.132;2023-04-16T06:06:45;1.13;;;1.10;;
8177;SDS011;4130;48.740;9.132;2023-04-16T06:09:11;1.33;;;1.23;;
8177;SDS011;4130;48.740;9.132;2023-04-16T06:11:38;1.40;;;1.30;;
8177;SDS011;4130;48.740;9.132;2023-04-16T06:14:06;1.50;;;1.40;;
8177;SDS011;4130;48.740;9.132;2023-04-16T06:16:33;1.27;;;1.23;;
8177;SDS011;4130;48.740;9.132;2023-04-16T06:19:00;1.50;;;1.40;;
8177;SDS011;4130;48.740;9.132;2023-04-16T06:21:27;1.80;;;1.70;;
8177;SDS011;4130;48.740;9.132;2023-04-16T06:23:55;1.93;;;1.70;;
8177;SDS011;4130;48.740;9.132;2023-04-16T06:26:22;1.77;;;1.50;;
8177;SDS011;4130;48.740;9.132;2023-04-16T06:28:49;1.03;;;1.00;;
8177;SDS011;4130;48.740;9.132;2023-04-16T06:31:17;1.90;;;1.77;;
8177;SDS011;4130;48.740;9.132;2023-04-16T06:33:44;1.40;;;1.30;;
8177;SDS011;4130;48.740;9.132;2023-04-16T06:36:11;1.83;;;1.57;;
8177;SDS011;4130;48.740;9.132;2023-04-16T06:38:38;1.47;;;1.37;;
8177;SDS011;4130;48.740;9.132;2023-04-16T06:41:04;2.10;;;1.50;;
8177;SDS011;4130;48.740;9.132;2023-04-16T06:43:31;1.70;;;1.60;;
8177;SDS011;4130;48.740;9.132;2023-04-16T06:45:58;2.13;;;1.53;;
8177;SDS011;4130;48.740;9.132;2023-04-16T06:48:26;1.87;;;1.27;;
8177;SDS011;4130;48.740;9.132;2023-04-16T06:50:53;1.50;;;1.40;;
8177;SDS011;4130;48.740;9.132;2023-04-16T06:53:20;1.63;;;1.50;;
8177;SDS011;4130;48.740;9.132;2023-04-16T06:55:47;2.50;;;1.63;;
8177;SDS011;4130;48.740;9.132;2023-04-16T06:58:14;1.60;;;1.30;;
8177;SDS011;4130;48.740;9.132;2023-04-16T07:00:41;1.80;;;1.70;;
8177;SDS011;4130;48.740;9.132;2023-04-16T07:03:07;1.80;;;1.70;;
8177;SDS011;4130;48.740;9.132;2023-04-16T07:05:36;2.73;;;2.20;;
8177;SDS011;4130;48.740;9.132;2023-04-16T07:08:02;1.70;;;1.60;;
8177;SDS011;4130;48.740;9.132;2023-04-16T07:10:29;1.40;;;1.30;;
8177;SDS011;4130;48.740;9.132;2023-04-16T07:12:56;2.70;;;2.07;;
8177;SDS011;4130;48.740;9.132;2023-04-16T07:15:25;2.07;;;1.80;;
8177;SDS011;4130;48.740;9.132;2023-04-16T07:17:52;1.90;;;1.80;;
8177;SDS011;4130;48.740;9.132;2023-04-16T07:20:18;1.43;;;1.33;;
8177;SDS011;4130;48.740;9.132;2023-04-16T07:22:46;1.60;;;1.50;;
8177;SDS011;4130;48.740;9.132;2023-04-16T07:25:13;1.83;;;1.73;;
8177;SDS011;4130;48.740;9.132;2023-04-16T07:27:40;1.77;;;1.67;;
8177;SDS011;4130;48.740;9.132;2023-04-16T07:30:07;1.53;;;1.43;;
8177;SDS011;4130;48.740;9.132;2023-04-16T07:32:34;1.77;;;1.60;;
8177;SDS011;4130;48.740;9.132;2023-04-16T07:35:01;2.23;;;1.80;;
8177;SDS011;4130;48.740;9.132;2023-04-16T07:37:28;1.60;;;1.50;;
8177;SDS011;4130;48.740;9.132;2023-04-16T07:39:56;2.27;;;1.63;;
8177;SDS011;4130;48.740;9.132;2023-04-16T07:42:24;2.13;;;1.93;;
8177;SDS011;4130;48.740;9.132;2023-04-16T07:44:51;1.70;;;1.60;;
8177;SDS011;4130;48.740;9.132;2023-04-16T07:47:18;1.83;;;1.73;;
8177;SDS011;4130;48.740;9.132;2023-04-16T07:49:47;1.97;;;1.47;;
8177;SDS011;4130;48.740;9.132;2023-04-16T07:52:13;1.33;;;1.27;;
8177;SDS011;4130;48.740;9.132;2023-04-16T07:54:40;2.00;;;1.73;;
8177;SDS011;4130;48.740;9.132;2023-04-16T07:57:08;1.67;;;1.57;;
8177;SDS011;4130;48.740;9.132;2023-04-16T07:59:35;1.70;;;1.60;;
8177;SDS011;4130;48.740;9.132;2023-04-16T08:02:02;1.77;;;1.67;;
8177;SDS011;4130;48.740;9.132;2023-04-16T08:04:30;1.37;;;1.27;;
8177;SDS011;4130;48.740;9.132;2023-04-16T08:06:56;1.77;;;1.67;;
8177;SDS011;4130;48.740;9.132;2023-04-16T08:09:25;2.37;;;1.83;;
8177;SDS011;4130;48.740;9.132;2023-04-16T08:11:52;2.10;;;2.00;;
8177;SDS011;4130;48.740;9.132;2023-04-16T08:14:20;1.67;;;1.57;;
8177;SDS011;4130;48.740;9.132;2023-04-16T08:16:48;1.60;;;1.40;;
8177;SDS011;4130;48.740;9.132;2023-04-16T08:19:15;1.43;;;1.33;;
8177;SDS011;4130;48.740;9.132;2023-04-16T08:21:42;1.17;;;1.10;;
8177;SDS011;4130;48.740;9.132;2023-04-16T08:24:09;2.17;;;1.57;;
8177;SDS011;4130;48.740;9.132;2023-04-16T08:26:35;2.03;;;1.83;;
8177;SDS011;4130;48.740;9.132;2023-04-16T08:29:03;2.00;;;1.90;;
8177;SDS011;4130;48.740;9.132;2023-04-16T08:31:31;1.83;;;1.73;;
8177;SDS011;4130;48.740;9.132;2023-04-16T08:33:58;2.40;;;2.00;;
8177;SDS011;4130;48.740;9.132;2023-04-16T08:36:25;2.20;;;1.70;;
8177;SDS011;4130;48.740;9.132;2023-04-16T08:38:52;2.23;;;1.80;;
8177;SDS011;4130;48.740;9.132;2023-04-16T08:41:20;1.50;;;1.40;;
8177;SDS011;4130;48.740;9.132;2023-04-16T08:43:47;2.20;;;2.00;;
8177;SDS011;4130;48.740;9.132;2023-04-16T08:46:17;1.93;;;1.83;;
8177;SDS011;4130;48.740;9.132;2023-04-16T08:48:51;1.57;;;1.47;;
8177;SDS011;4130;48.740;9.132;2023-04-16T08:51:19;1.97;;;1.87;;
8177;SDS011;4130;48.740;9.132;2023-04-16T08:53:48;2.63;;;2.10;;
8177;SDS011;4130;48.740;9.132;2023-04-16T08:56:18;1.90;;;1.80;;
8177;SDS011;4130;48.740;9.132;2023-04-16T08:58:46;2.57;;;1.90;;
8177;SDS011;4130;48.740;9.132;2023-04-16T09:01:17;1.47;;;1.40;;
8177;SDS011;4130;48.740;9.132;2023-04-16T09:03:46;1.73;;;1.50;;
8177;SDS011;4130;48.740;9.132;2023-04-16T09:06:15;2.03;;;1.80;;
8177;SDS011;4130;48.740;9.132;2023-04-16T09:08:42;1.73;;;1.63;;
8177;SDS011;4130;48.740;9.132;2023-04-16T09:11:11;2.87;;;2.03;;
8177;SDS011;4130;48.740;9.132;2023-04-16T09:13:39;1.40;;;1.30;;
8177;SDS011;4130;48.740;9.132;2023-04-16T09:16:06;2.10;;;1.97;;
8177;SDS011;4130;48.740;9.132;2023-04-16T09:18:34;1.83;;;1.67;;
8177;SDS011;4130;48.740;9.132;2023-04-16T09:21:01;1.60;;;1.50;;
8177;SDS011;4130;48.740;9.132;2023-04-16T09:23:30;1.50;;;1.40;;
8177;SDS011;4130;48.740;9.132;2023-04-16T09:25:57;1.37;;;1.27;;
8177;SDS011;4130;48.740;9.132;2023-04-16T09:28:37;1.80;;;1.70;;
8177;SDS011;4130;48.740;9.132;2023-04-16T09:31:08;1.67;;;1.57;;
8177;SDS011;4130;48.740;9.132;2023-04-16T09:33:38;1.60;;;1.50;;
8177;SDS011;4130;48.740;9.132;2023-04-16T09:36:05;3.83;;;2.30;;
8177;SDS011;4130;48.740;9.132;2023-04-16T09:38:46;1.97;;;1.83;;
8177;SDS011;4130;48.740;9.132;2023-04-16T09:41:13;1.77;;;1.67;;
8177;SDS011;4130;48.740;9.132;2023-04-16T09:43:41;2.40;;;1.90;;
8177;SDS011;4130;48.740;9.132;2023-04-16T09:46:18;1.97;;;1.77;;
8177;SDS011;4130;48.740;9.132;2023-04-16T09:48:45;2.30;;;1.93;;
8177;SDS011;4130;48.740;9.132;2023-04-16T09:51:12;1.53;;;1.43;;
8177;SDS011;4130;48.740;9.132;2023-04-16T09:53:39;2.17;;;1.93;;
8177;SDS011;4130;48.740;9.132;2023-04-16T09:56:07;1.50;;;1.40;;
8177;SDS011;4130;48.740;9.132;2023-04-16T09:58:35;1.97;;;1.83;;
8177;SDS011;4130;48.740;9.132;2023-04-16T10:01:04;1.83;;;1.73;;
8177;SDS011;4130;48.740;9.132;2023-04-16T10:03:35;2.30;;;2.10;;
8177;SDS011;4130;48.740;9.132;2023-04-16T10:06:07;2.03;;;1.83;;
8177;SDS011;4130;48.740;9.132;2023-04-16T10:08:41;2.47;;;2.27;;
8177;SDS011;4130;48.740;9.132;2023-04-16T10:11:10;2.00;;;1.70;;
8177;SDS011;4130;48.740;9.132;2023-04-16T10:13:37;2.77;;;2.50;;
8177;SDS011;4130;48.740;9.132;2023-04-16T10:16:04;2.07;;;1.97;;
8177;SDS011;4130;48.740;9.132;2023-04-16T10:18:33;4.40;;;2.20;;
8177;SDS011;4130;48.740;9.132;2023-04-16T10:21:02;1.40;;;1.30;;
8177;SDS011;4130;48.740;9.132;2023-04-16T10:23:35;2.30;;;1.80;;
8177;SDS011;4130;48.740;9.132;2023-04-16T10:26:03;2.10;;;1.87;;
8177;SDS011;4130;48.740;9.132;2023-04-16T10:28:32;2.03;;;1.83;;
8177;SDS011;4130;48.740;9.132;2023-04-16T10:31:00;2.27;;;1.43;;
8177;SDS011;4130;48.740;9.132;2023-04-16T10:33:29;2.57;;;1.97;;
8177;SDS011;4130;48.740;9.132;2023-04-16T10:36:07;1.60;;;1.50;;
8177;SDS011;4130;48.740;9.132;2023-04-16T10:38:37;2.20;;;2.00;;
8177;SDS011;4130;48.740;9.132;2023-04-16T10:41:05;2.40;;;1.90;;
8177;SDS011;4130;48.740;9.132;2023-04-16T10:43:39;2.27;;;1.73;;
8177;SDS011;4130;48.740;9.132;2023-04-16T10:46:19;1.70;;;1.60;;
8177;SDS011;4130;48.740;9.132;2023-04-16T10:48:47;1.90;;;1.80;;
8177;SDS011;4130;48.740;9.132;2023-04-16T10:51:23;2.03;;;1.83;;
8177;SDS011;4130;48.740;9.132;2023-04-16T10:53:52;2.10;;;1.90;;
8177;SDS011;4130;48.740;9.132;2023-04-16T10:56:23;2.07;;;1.87;;
8177;SDS011;4130;48.740;9.132;2023-04-16T10:58:53;1.83;;;1.60;;
8177;SDS011;4130;48.740;9.132;2023-04-16T11:01:26;1.73;;;1.63;;
8177;SDS011;4130;48.740;9.132;2023-04-16T11:03:57;3.67;;;2.50;;
8177;SDS011;4130;48.740;9.132;2023-04-16T11:06:27;2.03;;;1.83;;
8177;SDS011;4130;48.740;9.132;2023-04-16T11:08:54;2.67;;;1.83;;
8177;SDS011;4130;48.740;9.132;2023-04-16T11:11:21;2.00;;;1.80;;
8177;SDS011;4130;48.740;9.132;2023-04-16T11:13:48;2.27;;;2.00;;
8177;SDS011;4130;48.740;9.132;2023-04-16T11:16:21;2.00;;;1.83;;
8177;SDS011;4130;48.740;9.132;2023-04-16T11:18:49;1.83;;;1.60;;
8177;SDS011;4130;48.740;9.132;2023-04-16T11:21:16;1.70;;;1.50;;
8177;SDS011;4130;48.740;9.132;2023-04-16T11:23:46;1.50;;;1.40;;
8177;SDS011;4130;48.740;9.132;2023-04-16T11:26:21;1.53;;;1.43;;
8177;SDS011;4130;48.740;9.132;2023-04-16T11:28:50;1.33;;;1.23;;
8177;SDS011;4130;48.740;9.132;2023-04-16T11:31:17;1.80;;;1.33;;
8177;SDS011;4130;48.740;9.132;2023-04-16T11:33:45;1.57;;;1.47;;
8177;SDS011;4130;48.740;9.132;2023-04-16T11:36:12;1.20;;;1.10;;
8177;SDS011;4130;48.740;9.132;2023-04-16T11:38:39;1.33;;;1.23;;
8177;SDS011;4130;48.740;9.132;2023-04-16T11:41:07;0.87;;;0.87;;
8177;SDS011;4130;48.740;9.132;2023-04-16T11:43:34;1.70;;;1.20;;
8177;SDS011;4130;48.740;9.132;2023-04-16T11:46:01;1.00;;;1.00;;
8177;SDS011;4130;48.740;9.132;2023-04-16T11:48:46;1.00;;;1.00;;
8177;SDS011;4130;48.740;9.132;2023-04-16T11:51:14;2.37;;;1.30;;
8177;SDS011;4130;48.740;9.132;2023-04-16T11:53:46;1.17;;;1.10;;
8177;SDS011;4130;48.740;9.132;2023-04-16T11:56:13;0.83;;;0.83;;
8177;SDS011;4130;48.740;9.132;2023-04-16T11:58:41;1.47;;;1.03;;
8177;SDS011;4130;48.740;9.132;2023-04-16T12:01:08;1.20;;;0.97;;
8177;SDS011;4130;48.740;9.132;2023-04-16T12:03:39;1.50;;;1.40;;
8177;SDS011;4130;48.740;9.132;2023-04-16T12:06:11;1.13;;;1.00;;
8177;SDS011;4130;48.740;9.132;2023-04-16T12:08:37;0.90;;;0.90;;
8177;SDS011;4130;48.740;9.132;2023-04-16T12:11:04;1.63;;;1.30;;
8177;SDS011;4130;48.740;9.132;2023-04-16T12:13:31;1.00;;;0.77;;
8177;SDS011;4130;48.740;9.132;2023-04-16T12:16:10;0.80;;;0.67;;
8177;SDS011;4130;48.740;9.132;2023-04-16T12:18:57;0.70;;;0.70;;
8177;SDS011;4130;48.740;9.132;2023-04-16T12:21:35;0.50;;;0.50;;
8177;SDS011;4130;48.740;9.132;2023-04-16T12:24:03;0.80;;;0.80;;
8177;SDS011;4130;48.740;9.132;2023-04-16T12:26:40;0.37;;;0.37;;
8177;SDS011;4130;48.740;9.132;2023-04-16T12:29:15;0.40;;;0.40;;
8177;SDS011;4130;48.740;9.132;2023-04-16T12:31:43;0.70;;;0.70;;
8177;SDS011;4130;48.740;9.132;2023-04-16T12:34:10;0.90;;;0.70;;
8177;SDS011;4130;48.740;9.132;2023-04-16T12:36:40;0.60;;;0.60;;
8177;SDS011;4130;48.740;9.132;2023-04-16T12:39:07;0.63;;;0.63;;
8177;SDS011;4130;48.740;9.132;2023-04-16T12:41:37;0.80;;;0.80;;
8177;SDS011;4130;48.740;9.132;2023-04-16T12:44:06;0.43;;;0.43;;
8177;SDS011;4130;48.740;9.132;2023-04-16T12:46:36;0.80;;;0.80;;
8177;SDS011;4130;48.740;9.132;2023-04-16T12:49:03;0.43;;;0.43;;
8177;SDS011;4130;48.740;9.132;2023-04-16T12:51:30;0.47;;;0.47;;
8177;SDS011;4130;48.740;9.132;2023-04-16T12:53:59;0.50;;;0.50;;
8177;SDS011;4130;48.740;9.132;2023-04-16T12:56:26;1.00;;;0.80;;
8177;SDS011;4130;48.740;9.132;2023-04-16T12:58:54;0.70;;;0.70;;
8177;SDS011;4130;48.740;9.132;2023-04-16T13:01:21;0.53;;;0.53;;
8177;SDS011;4130;48.740;9.132;2023-04-16T13:03:48;0.80;;;0.80;;
8177;SDS011;4130;48.740;9.132;2023-04-16T13:06:16;1.10;;;1.00;;
8177;SDS011;4130;48.740;9.132;2023-04-16T13:08:43;0.87;;;0.87;;
8177;SDS011;4130;48.740;9.132;2023-04-16T13:11:12;0.60;;;0.60;;
8177;SDS011;4130;48.740;9.132;2023-04-16T13:13:39;0.90;;;0.90;;
8177;SDS011;4130;48.740;9.132;2023-04-16T13:16:06;0.50;;;0.50;;
8177;SDS011;4130;48.740;9.132;2023-04-16T13:18:33;0.83;;;0.83;;
8177;SDS011;4130;48.740;9.132;2023-04-16T13:21:01;0.67;;;0.67;;
8177;SDS011;4130;48.740;9.132;2023-04-16T13:23:28;1.23;;;1.13;;
8177;SDS011;4130;48.740;9.132;2023-04-16T13:25:55;0.77;;;0.77;;
8177;SDS011;4130;48.740;9.132;2023-04-16T13:28:23;1.33;;;1.20;;
8177;SDS011;4130;48.740;9.132;2023-04-16T13:30:50;0.90;;;0.90;;
8177;SDS011;4130;48.740;9.132;2023-04-16T13:33:18;0.57;;;0.57;;
8177;SDS011;4130;48.740;9.132;2023-04-16T13:35:45;0.97;;;0.97;;
8177;SDS011;4130;48.740;9.132;2023-04-16T13:38:11;0.80;;;0.80;;
8177;SDS011;4130;48.740;9.132;2023-04-16T13:40:38;0.77;;;0.77;;
8177;SDS011;4130;48.740;9.132;2023-04-16T13:43:05;0.70;;;0.70;;
8177;SDS011;4130;48.740;9.132;2023-04-16T13:45:33;0.93;;;0.70;;
8177;SDS011;4130;48.740;9.132;2023-04-16T13:48:00;0.70;;;0.70;;
8177;SDS011;4130;48.740;9.132;2023-04-16T13:50:27;0.80;;;0.80;;
8177;SDS011;4130;48.740;9.132;2023-04-16T13:52:54;0.57;;;0.57;;
8177;SDS011;4130;48.740;9.132;2023-04-16T13:55:21;0.60;;;0.60;;
8177;SDS011;4130;48.740;9.132;2023-04-16T13:57:48;0.90;;;0.90;;
8177;SDS011;4130;48.740;9.132;2023-04-16T14:00:17;1.43;;;1.20;;
8177;SDS011;4130;48.740;9.132;2023-04-16T14:02:45;0.73;;;0.73;;
8177;SDS011;4130;48.740;9.132;2023-04-16T14:05:12;1.10;;;1.07;;
8177;SDS011;4130;48.740;9.132;2023-04-16T14:07:39;1.00;;;1.00;;
8177;SDS011;4130;48.740;9.132;2023-04-16T14:10:07;1.20;;;1.10;;
8177;SDS011;4130;48.740;9.132;2023-04-16T14:12:34;1.00;;;1.00;;
8177;SDS011;4130;48.740;9.132;2023-04-16T14:15:01;1.40;;;1.20;;
8177;SDS011;4130;48.740;9.132;2023-04-16T14:17:29;0.87;;;0.87;;
8177;SDS011;4130;48.740;9.132;2023-04-16T14:19:57;1.60;;;0.97;;
8177;SDS011;4130;48.740;9.132;2023-04-16T14:22:24;0.83;;;0.83;;
8177;SDS011;4130;48.740;9.132;2023-04-16T14:24:50;0.60;;;0.60;;
8177;SDS011;4130;48.740;9.132;2023-04-16T14:27:17;1.30;;;1.20;;
8177;SDS011;4130;48.740;9.132;2023-04-16T14:29:44;1.70;;;1.60;;
8177;SDS011;4130;48.740;9.132;2023-04-16T14:32:11;1.70;;;0.87;;
8177;SDS011;4130;48.740;9.132;2023-04-16T14:34:38;1.30;;;1.20;;
8177;SDS011;4130;48.740;9.132;2023-04-16T14:37:06;0.93;;;0.90;;
8177;SDS011;4130;48.740;9.132;2023-04-16T14:39:33;0.90;;;0.90;;
8177;SDS011;4130;48.740;9.132;2023-04-16T14:42:00;1.27;;;1.17;;
8177;SDS011;4130;48.740;9.132;2023-04-16T14:44:27;1.40;;;1.27;;
8177;SDS011;4130;48.740;9.132;2023-04-16T14:46:53;1.50;;;1.40;;
8177;SDS011;4130;48.740;9.132;2023-04-16T14:49:20;1.40;;;0.90;;
8177;SDS011;4130;48.740;9.132;2023-04-16T14:51:47;1.40;;;1.30;;
8177;SDS011;4130;48.740;9.132;2023-04-16T14:54:15;1.53;;;1.07;;
8177;SDS011;4130;48.740;9.132;2023-04-16T14:56:43;1.20;;;1.10;;
8177;SDS011;4130;48.740;9.132;2023-04-16T14:59:10;1.23;;;1.13;;
8177;SDS011;4130;48.740;9.132;2023-04-16T15:01:37;1.50;;;1.40;;
8177;SDS011;4130;48.740;9.132;2023-04-16T15:04:05;1.30;;;1.30;;
8177;SDS011;4130;48.740;9.132;2023-04-16T15:06:32;1.70;;;1.60;;
8177;SDS011;4130;48.740;9.132;2023-04-16T15:09:00;1.33;;;1.23;;
8177;SDS011;4130;48.740;9.132;2023-04-16T15:11:28;1.70;;;1.60;;
8177;SDS011;4130;48.740;9.132;2023-04-16T15:13:55;2.00;;;1.70;;
8177;SDS011;4130;48.740;9.132;2023-04-16T15:16:22;1.57;;;1.47;;
8177;SDS011;4130;48.740;9.132;2023-04-16T15:18:50;1.27;;;1.17;;